sensor_id;sensor_type;location;lat;lon;timestamp;P1;P2;P0
77692;PMS5003;66984;47.404;18.836;2023-02-15T00:00:16;40.00;32.25;20.75
77692;PMS5003;66984;47.404;18.836;2023-02-15T00:01:19;40.00;33.00;21.00
77692;PMS5003;66984;47.404;18.836;2023-02-15T00:02:21;39.50;32.25;20.00
77692;PMS5003;66984;47.404;18.836;2023-02-15T00:03:26;41.00;33.00;21.00
77692;PMS5003;66984;47.404;18.836;2023-02-15T00:04:29;41.50;33.50;20.00
77692;PMS5003;66984;47.404;18.836;2023-02-15T00:05:50;41.00;33.00;21.00
77692;PMS5003;66984;47.404;18.836;2023-02-15T00:06:52;40.00;33.00;21.00
77692;PMS5003;66984;47.404;18.836;2023-02-15T00:07:55;40.75;33.00;20.00
77692;PMS5003;66984;47.404;18.836;2023-02-15T00:08:58;40.00;33.00;20.00
77692;PMS5003;66984;47.404;18.836;2023-02-15T00:10:01;40.00;33.25;19.25
77692;PMS5003;66984;47.404;18.836;2023-02-15T00:11:07;38.00;31.00;19.00
77692;PMS5003;66984;47.404;18.836;2023-02-15T00:12:11;38.50;31.00;19.00
77692;PMS5003;66984;47.404;18.836;2023-02-15T00:13:15;38.25;31.00;19.50
77692;PMS5003;66984;47.404;18.836;2023-02-15T00:15:22;40.00;32.75;20.00
77692;PMS5003;66984;47.404;18.836;2023-02-15T00:16:24;39.75;33.00;20.00
77692;PMS5003;66984;47.404;18.836;2023-02-15T00:17:28;39.00;33.00;20.00
77692;PMS5003;66984;47.404;18.836;2023-02-15T00:18:31;39.50;33.00;20.25
77692;PMS5003;66984;47.404;18.836;2023-02-15T00:19:34;38.00;32.00;20.00
77692;PMS5003;66984;47.404;18.836;2023-02-15T00:20:37;36.50;30.50;19.00
77692;PMS5003;66984;47.404;18.836;2023-02-15T00:21:40;37.00;32.00;20.00
77692;PMS5003;66984;47.404;18.836;2023-02-15T00:22:43;39.00;32.00;21.00
77692;PMS5003;66984;47.404;18.836;2023-02-15T00:23:46;40.00;32.00;20.00
77692;PMS5003;66984;47.404;18.836;2023-02-15T00:24:49;39.00;32.00;19.75
77692;PMS5003;66984;47.404;18.836;2023-02-15T00:25:52;37.00;31.00;18.75
77692;PMS5003;66984;47.404;18.836;2023-02-15T00:26:54;40.00;32.00;20.00
77692;PMS5003;66984;47.404;18.836;2023-02-15T00:27:59;38.75;31.00;19.00
77692;PMS5003;66984;47.404;18.836;2023-02-15T00:29:02;37.00;30.50;19.00
77692;PMS5003;66984;47.404;18.836;2023-02-15T00:30:05;37.25;31.00;18.00
77692;PMS5003;66984;47.404;18.836;2023-02-15T00:31:09;38.00;30.50;18.00
77692;PMS5003;66984;47.404;18.836;2023-02-15T00:32:13;39.50;32.00;19.00
77692;PMS5003;66984;47.404;18.836;2023-02-15T00:33:16;39.00;32.00;19.00
77692;PMS5003;66984;47.404;18.836;2023-02-15T00:35:22;38.00;32.00;20.00
77692;PMS5003;66984;47.404;18.836;2023-02-15T00:36:25;37.00;31.00;19.00
77692;PMS5003;66984;47.404;18.836;2023-02-15T00:37:28;38.25;32.00;19.00
77692;PMS5003;66984;47.404;18.836;2023-02-15T00:38:31;38.25;31.25;19.00
77692;PMS5003;66984;47.404;18.836;2023-02-15T00:39:34;39.50;32.00;19.75
77692;PMS5003;66984;47.404;18.836;2023-02-15T00:40:36;40.00;33.00;20.00
77692;PMS5003;66984;47.404;18.836;2023-02-15T00:41:39;40.00;32.00;21.00
77692;PMS5003;66984;47.404;18.836;2023-02-15T00:42:42;39.00;32.00;20.00
77692;PMS5003;66984;47.404;18.836;2023-02-15T00:43:45;40.75;33.50;20.00
77692;PMS5003;66984;47.404;18.836;2023-02-15T00:44:48;40.00;33.00;20.00
77692;PMS5003;66984;47.404;18.836;2023-02-15T00:45:50;39.00;32.00;19.00
77692;PMS5003;66984;47.404;18.836;2023-02-15T00:46:53;39.00;32.50;20.00
77692;PMS5003;66984;47.404;18.836;2023-02-15T00:47:56;39.00;33.00;20.00
77692;PMS5003;66984;47.404;18.836;2023-02-15T00:48:59;40.00;33.00;19.00
77692;PMS5003;66984;47.404;18.836;2023-02-15T00:50:02;39.00;33.00;19.00
77692;PMS5003;66984;47.404;18.836;2023-02-15T00:51:05;39.50;33.50;20.50
77692;PMS5003;66984;47.404;18.836;2023-02-15T00:52:08;40.00;33.00;21.00
77692;PMS5003;66984;47.404;18.836;2023-02-15T00:53:11;40.00;33.00;21.00
77692;PMS5003;66984;47.404;18.836;2023-02-15T00:54:14;38.50;32.00;20.00
77692;PMS5003;66984;47.404;18.836;2023-02-15T00:55:17;40.00;33.00;20.00
77692;PMS5003;66984;47.404;18.836;2023-02-15T00:56:19;40.00;32.00;19.00
77692;PMS5003;66984;47.404;18.836;2023-02-15T00:57:22;39.00;32.00;19.00
77692;PMS5003;66984;47.404;18.836;2023-02-15T00:58:25;40.00;33.00;19.00
77692;PMS5003;66984;47.404;18.836;2023-02-15T00:59:28;39.50;32.25;19.00
77692;PMS5003;66984;47.404;18.836;2023-02-15T01:00:30;39.00;32.00;19.00
77692;PMS5003;66984;47.404;18.836;2023-02-15T01:01:33;37.00;31.00;19.00
77692;PMS5003;66984;47.404;18.836;2023-02-15T01:02:36;39.00;32.00;20.00
77692;PMS5003;66984;47.404;18.836;2023-02-15T01:03:38;40.00;33.00;19.75
77692;PMS5003;66984;47.404;18.836;2023-02-15T01:04:43;37.00;31.00;20.00
77692;PMS5003;66984;47.404;18.836;2023-02-15T01:05:46;36.50;30.00;19.00
77692;PMS5003;66984;47.404;18.836;2023-02-15T01:06:50;37.00;30.50;19.00
77692;PMS5003;66984;47.404;18.836;2023-02-15T01:07:53;39.00;31.00;20.00
77692;PMS5003;66984;47.404;18.836;2023-02-15T01:08:55;39.00;31.00;19.00
77692;PMS5003;66984;47.404;18.836;2023-02-15T01:09:58;39.50;31.00;19.00
77692;PMS5003;66984;47.404;18.836;2023-02-15T01:11:08;39.00;31.00;19.50
77692;PMS5003;66984;47.404;18.836;2023-02-15T01:12:12;39.50;32.00;19.00
77692;PMS5003;66984;47.404;18.836;2023-02-15T01:13:15;38.75;31.00;18.00
77692;PMS5003;66984;47.404;18.836;2023-02-15T01:14:18;39.50;33.00;19.00
77692;PMS5003;66984;47.404;18.836;2023-02-15T01:15:21;39.00;32.75;19.00
77692;PMS5003;66984;47.404;18.836;2023-02-15T01:16:26;39.00;31.25;19.00
77692;PMS5003;66984;47.404;18.836;2023-02-15T01:17:30;39.00;32.00;19.50
77692;PMS5003;66984;47.404;18.836;2023-02-15T01:18:34;36.00;30.25;19.00
77692;PMS5003;66984;47.404;18.836;2023-02-15T01:19:37;36.50;30.50;18.00
77692;PMS5003;66984;47.404;18.836;2023-02-15T01:20:40;36.50;30.25;18.00
77692;PMS5003;66984;47.404;18.836;2023-02-15T01:21:43;38.75;31.25;19.00
77692;PMS5003;66984;47.404;18.836;2023-02-15T01:22:46;38.75;30.00;18.00
77692;PMS5003;66984;47.404;18.836;2023-02-15T01:23:52;36.75;30.50;18.25
77692;PMS5003;66984;47.404;18.836;2023-02-15T01:24:54;37.00;30.00;19.00
77692;PMS5003;66984;47.404;18.836;2023-02-15T01:26:01;36.50;30.00;19.00
77692;PMS5003;66984;47.404;18.836;2023-02-15T01:27:04;37.75;31.00;19.00
77692;PMS5003;66984;47.404;18.836;2023-02-15T01:28:07;37.00;31.00;19.00
77692;PMS5003;66984;47.404;18.836;2023-02-15T01:29:10;37.00;30.00;19.00
77692;PMS5003;66984;47.404;18.836;2023-02-15T01:30:13;38.00;31.00;19.00
77692;PMS5003;66984;47.404;18.836;2023-02-15T01:31:17;38.00;31.00;19.00
77692;PMS5003;66984;47.404;18.836;2023-02-15T01:32:22;37.25;30.25;18.00
77692;PMS5003;66984;47.404;18.836;2023-02-15T01:33:25;36.75;30.75;19.00
77692;PMS5003;66984;47.404;18.836;2023-02-15T01:34:28;38.50;31.00;19.50
77692;PMS5003;66984;47.404;18.836;2023-02-15T01:35:33;37.75;30.75;19.00
77692;PMS5003;66984;47.404;18.836;2023-02-15T01:36:38;39.50;31.25;19.00
77692;PMS5003;66984;47.404;18.836;2023-02-15T01:37:41;39.00;31.00;19.00
77692;PMS5003;66984;47.404;18.836;2023-02-15T01:38:44;39.00;31.00;19.00
77692;PMS5003;66984;47.404;18.836;2023-02-15T01:39:47;37.00;30.50;18.00
77692;PMS5003;66984;47.404;18.836;2023-02-15T01:40:51;37.00;31.00;19.00
77692;PMS5003;66984;47.404;18.836;2023-02-15T01:41:55;37.25;30.00;19.00
77692;PMS5003;66984;47.404;18.836;2023-02-15T01:42:57;38.75;31.00;18.25
77692;PMS5003;66984;47.404;18.836;2023-02-15T01:44:00;39.00;32.00;19.00
77692;PMS5003;66984;47.404;18.836;2023-02-15T01:45:51;36.50;31.00;19.00
77692;PMS5003;66984;47.404;18.836;2023-02-15T01:46:37;37.00;31.00;19.00
77692;PMS5003;66984;47.404;18.836;2023-02-15T01:47:44;36.00;30.00;18.00
77692;PMS5003;66984;47.404;18.836;2023-02-15T01:49:09;38.00;30.00;18.00
77692;PMS5003;66984;47.404;18.836;2023-02-15T01:50:17;36.00;30.00;18.00
77692;PMS5003;66984;47.404;18.836;2023-02-15T01:51:23;35.50;29.75;17.50
77692;PMS5003;66984;47.404;18.836;2023-02-15T01:52:29;36.00;29.25;17.50
77692;PMS5003;66984;47.404;18.836;2023-02-15T01:53:37;37.00;29.50;18.75
77692;PMS5003;66984;47.404;18.836;2023-02-15T01:54:44;36.00;29.50;17.50
77692;PMS5003;66984;47.404;18.836;2023-02-15T01:56:11;37.00;30.00;18.00
77692;PMS5003;66984;47.404;18.836;2023-02-15T01:57:21;37.00;31.00;19.00
77692;PMS5003;66984;47.404;18.836;2023-02-15T01:58:27;35.50;30.00;19.00
77692;PMS5003;66984;47.404;18.836;2023-02-15T01:59:31;36.00;29.50;18.00
77692;PMS5003;66984;47.404;18.836;2023-02-15T02:00:37;35.50;29.50;17.50
77692;PMS5003;66984;47.404;18.836;2023-02-15T02:01:40;36.00;30.00;18.25
77692;PMS5003;66984;47.404;18.836;2023-02-15T02:02:43;36.00;30.00;19.00
77692;PMS5003;66984;47.404;18.836;2023-02-15T02:05:11;35.25;29.00;18.25
77692;PMS5003;66984;47.404;18.836;2023-02-15T02:06:14;35.00;29.50;18.00
77692;PMS5003;66984;47.404;18.836;2023-02-15T02:07:17;35.50;29.50;17.50
77692;PMS5003;66984;47.404;18.836;2023-02-15T02:08:22;37.00;30.75;17.50
77692;PMS5003;66984;47.404;18.836;2023-02-15T02:09:26;36.00;30.00;19.00
77692;PMS5003;66984;47.404;18.836;2023-02-15T02:10:29;35.00;29.50;19.00
77692;PMS5003;66984;47.404;18.836;2023-02-15T02:11:32;35.50;29.50;18.50
77692;PMS5003;66984;47.404;18.836;2023-02-15T02:12:36;36.00;30.00;18.25
77692;PMS5003;66984;47.404;18.836;2023-02-15T02:13:43;37.00;31.00;18.00
77692;PMS5003;66984;47.404;18.836;2023-02-15T02:14:46;35.50;29.50;18.00
77692;PMS5003;66984;47.404;18.836;2023-02-15T02:16:26;37.25;30.00;19.00
77692;PMS5003;66984;47.404;18.836;2023-02-15T02:17:39;37.75;31.25;19.00
77692;PMS5003;66984;47.404;18.836;2023-02-15T02:19:01;36.00;29.00;19.00
77692;PMS5003;66984;47.404;18.836;2023-02-15T02:20:28;37.00;30.00;19.00
77692;PMS5003;66984;47.404;18.836;2023-02-15T02:24:56;37.00;30.00;19.00
77692;PMS5003;66984;47.404;18.836;2023-02-15T02:26:20;36.25;29.50;17.25
77692;PMS5003;66984;47.404;18.836;2023-02-15T02:35:56;34.75;29.00;17.00
77692;PMS5003;66984;47.404;18.836;2023-02-15T02:37:23;34.50;28.50;17.00
77692;PMS5003;66984;47.404;18.836;2023-02-15T02:41:50;36.00;29.75;17.00
77692;PMS5003;66984;47.404;18.836;2023-02-15T02:43:24;34.00;28.25;17.00
77692;PMS5003;66984;47.404;18.836;2023-02-15T02:45:53;36.00;29.00;17.00
77692;PMS5003;66984;47.404;18.836;2023-02-15T02:48:48;34.00;28.00;17.00
77692;PMS5003;66984;47.404;18.836;2023-02-15T02:49:52;37.00;29.00;17.25
77692;PMS5003;66984;47.404;18.836;2023-02-15T02:51:01;36.50;29.75;17.00
77692;PMS5003;66984;47.404;18.836;2023-02-15T02:52:05;36.00;30.00;17.00
77692;PMS5003;66984;47.404;18.836;2023-02-15T02:53:09;36.00;29.00;18.00
77692;PMS5003;66984;47.404;18.836;2023-02-15T02:54:13;37.00;31.00;17.75
77692;PMS5003;66984;47.404;18.836;2023-02-15T02:56:02;36.00;29.00;17.00
77692;PMS5003;66984;47.404;18.836;2023-02-15T02:56:58;34.00;28.75;17.00
77692;PMS5003;66984;47.404;18.836;2023-02-15T02:59:30;34.50;29.00;17.00
77692;PMS5003;66984;47.404;18.836;2023-02-15T03:00:40;35.25;29.25;18.00
77692;PMS5003;66984;47.404;18.836;2023-02-15T03:01:50;33.00;28.25;17.00
77692;PMS5003;66984;47.404;18.836;2023-02-15T03:02:59;34.25;28.50;17.00
77692;PMS5003;66984;47.404;18.836;2023-02-15T03:04:08;36.00;29.00;18.75
77692;PMS5003;66984;47.404;18.836;2023-02-15T03:05:16;36.00;30.00;18.25
77692;PMS5003;66984;47.404;18.836;2023-02-15T03:06:26;36.00;30.00;18.25
77692;PMS5003;66984;47.404;18.836;2023-02-15T03:07:37;34.50;29.00;17.00
77692;PMS5003;66984;47.404;18.836;2023-02-15T03:08:42;36.00;29.00;17.00
77692;PMS5003;66984;47.404;18.836;2023-02-15T03:09:51;37.00;29.75;17.00
77692;PMS5003;66984;47.404;18.836;2023-02-15T03:10:58;36.00;29.50;18.00
77692;PMS5003;66984;47.404;18.836;2023-02-15T03:12:02;36.50;29.00;18.25
77692;PMS5003;66984;47.404;18.836;2023-02-15T03:13:05;36.00;29.00;17.00
77692;PMS5003;66984;47.404;18.836;2023-02-15T03:14:10;34.00;29.00;17.00
77692;PMS5003;66984;47.404;18.836;2023-02-15T03:15:19;35.00;29.00;17.00
77692;PMS5003;66984;47.404;18.836;2023-02-15T03:16:24;33.00;28.00;17.00
77692;PMS5003;66984;47.404;18.836;2023-02-15T03:17:29;34.00;28.00;17.00
77692;PMS5003;66984;47.404;18.836;2023-02-15T03:18:43;33.00;26.50;17.00
77692;PMS5003;66984;47.404;18.836;2023-02-15T03:19:55;33.00;26.00;17.00
77692;PMS5003;66984;47.404;18.836;2023-02-15T03:21:01;33.75;27.75;17.00
77692;PMS5003;66984;47.404;18.836;2023-02-15T03:22:18;35.25;28.50;17.00
77692;PMS5003;66984;47.404;18.836;2023-02-15T03:23:26;32.50;27.00;16.00
77692;PMS5003;66984;47.404;18.836;2023-02-15T03:25:46;33.00;28.00;16.00
77692;PMS5003;66984;47.404;18.836;2023-02-15T03:26:54;31.50;26.75;17.00
77692;PMS5003;66984;47.404;18.836;2023-02-15T03:28:18;31.50;26.00;16.00
77692;PMS5003;66984;47.404;18.836;2023-02-15T03:29:25;33.75;28.00;16.00
77692;PMS5003;66984;47.404;18.836;2023-02-15T03:30:30;33.50;27.75;16.00
77692;PMS5003;66984;47.404;18.836;2023-02-15T03:31:37;32.75;26.50;15.75
77692;PMS5003;66984;47.404;18.836;2023-02-15T03:32:43;33.00;26.00;16.00
77692;PMS5003;66984;47.404;18.836;2023-02-15T03:33:58;31.50;25.50;16.00
77692;PMS5003;66984;47.404;18.836;2023-02-15T03:35:06;29.00;25.50;16.00
77692;PMS5003;66984;47.404;18.836;2023-02-15T03:38:09;30.25;26.00;15.00
77692;PMS5003;66984;47.404;18.836;2023-02-15T03:40:38;31.00;27.00;16.00
77692;PMS5003;66984;47.404;18.836;2023-02-15T03:42:16;31.00;25.25;16.00
77692;PMS5003;66984;47.404;18.836;2023-02-15T03:46:12;28.50;25.00;14.00
77692;PMS5003;66984;47.404;18.836;2023-02-15T03:47:16;31.25;26.00;15.00
77692;PMS5003;66984;47.404;18.836;2023-02-15T03:48:33;28.50;25.00;14.00
77692;PMS5003;66984;47.404;18.836;2023-02-15T03:50:15;28.00;24.00;14.00
77692;PMS5003;66984;47.404;18.836;2023-02-15T03:51:35;28.00;24.50;16.00
77692;PMS5003;66984;47.404;18.836;2023-02-15T03:52:41;27.50;24.00;15.00
77692;PMS5003;66984;47.404;18.836;2023-02-15T03:53:45;29.75;24.00;16.00
77692;PMS5003;66984;47.404;18.836;2023-02-15T03:54:49;30.00;25.50;14.25
77692;PMS5003;66984;47.404;18.836;2023-02-15T03:55:55;29.00;25.00;15.75
77692;PMS5003;66984;47.404;18.836;2023-02-15T03:56:58;31.00;26.25;15.00
77692;PMS5003;66984;47.404;18.836;2023-02-15T03:58:19;32.00;25.25;14.00
77692;PMS5003;66984;47.404;18.836;2023-02-15T03:59:40;31.25;26.00;16.00
77692;PMS5003;66984;47.404;18.836;2023-02-15T04:01:03;30.75;25.00;16.00
77692;PMS5003;66984;47.404;18.836;2023-02-15T04:02:40;31.00;25.00;16.00
77692;PMS5003;66984;47.404;18.836;2023-02-15T04:04:09;27.50;24.50;15.00
77692;PMS5003;66984;47.404;18.836;2023-02-15T04:05:17;27.50;25.00;14.50
77692;PMS5003;66984;47.404;18.836;2023-02-15T04:06:20;30.00;25.00;14.00
77692;PMS5003;66984;47.404;18.836;2023-02-15T04:07:23;29.00;25.00;15.00
77692;PMS5003;66984;47.404;18.836;2023-02-15T04:08:25;28.00;23.25;14.00
77692;PMS5003;66984;47.404;18.836;2023-02-15T04:09:48;30.50;25.00;16.00
77692;PMS5003;66984;47.404;18.836;2023-02-15T04:11:09;31.00;26.00;16.00
77692;PMS5003;66984;47.404;18.836;2023-02-15T04:12:12;33.00;27.50;15.25
77692;PMS5003;66984;47.404;18.836;2023-02-15T04:13:15;31.75;27.00;16.50
77692;PMS5003;66984;47.404;18.836;2023-02-15T04:14:17;31.25;26.00;16.00
77692;PMS5003;66984;47.404;18.836;2023-02-15T04:15:38;34.00;27.50;16.00
77692;PMS5003;66984;47.404;18.836;2023-02-15T04:17:00;33.50;27.00;16.00
77692;PMS5003;66984;47.404;18.836;2023-02-15T04:18:03;32.25;27.00;16.00
77692;PMS5003;66984;47.404;18.836;2023-02-15T04:19:06;33.00;28.00;16.00
77692;PMS5003;66984;47.404;18.836;2023-02-15T04:20:27;32.00;27.00;16.00
77692;PMS5003;66984;47.404;18.836;2023-02-15T04:21:48;31.25;26.00;16.00
77692;PMS5003;66984;47.404;18.836;2023-02-15T04:23:09;32.75;27.25;16.00
77692;PMS5003;66984;47.404;18.836;2023-02-15T04:24:30;30.00;25.00;15.00
77692;PMS5003;66984;47.404;18.836;2023-02-15T04:25:51;31.00;25.50;16.00
77692;PMS5003;66984;47.404;18.836;2023-02-15T04:26:54;33.00;28.00;16.50
77692;PMS5003;66984;47.404;18.836;2023-02-15T04:27:58;33.00;28.00;16.50
77692;PMS5003;66984;47.404;18.836;2023-02-15T04:29:00;32.50;27.50;17.00
77692;PMS5003;66984;47.404;18.836;2023-02-15T04:30:03;31.00;26.00;16.00
77692;PMS5003;66984;47.404;18.836;2023-02-15T04:31:07;33.25;26.00;16.00
77692;PMS5003;66984;47.404;18.836;2023-02-15T04:32:10;34.00;28.00;17.00
77692;PMS5003;66984;47.404;18.836;2023-02-15T04:33:13;34.00;28.00;17.00
77692;PMS5003;66984;47.404;18.836;2023-02-15T04:34:15;34.00;28.00;17.00
77692;PMS5003;66984;47.404;18.836;2023-02-15T04:35:18;32.00;27.75;16.00
77692;PMS5003;66984;47.404;18.836;2023-02-15T04:36:21;34.00;28.00;16.00
77692;PMS5003;66984;47.404;18.836;2023-02-15T04:37:23;34.00;28.00;17.00
77692;PMS5003;66984;47.404;18.836;2023-02-15T04:38:26;31.25;25.00;17.00
77692;PMS5003;66984;47.404;18.836;2023-02-15T04:39:29;33.00;26.00;16.75
77692;PMS5003;66984;47.404;18.836;2023-02-15T04:40:31;34.00;27.50;17.00
77692;PMS5003;66984;47.404;18.836;2023-02-15T04:41:34;33.00;27.00;17.00
77692;PMS5003;66984;47.404;18.836;2023-02-15T04:42:37;34.00;28.00;17.00
77692;PMS5003;66984;47.404;18.836;2023-02-15T04:43:40;34.00;28.50;17.00
77692;PMS5003;66984;47.404;18.836;2023-02-15T04:44:43;36.75;30.00;17.00
77692;PMS5003;66984;47.404;18.836;2023-02-15T04:45:49;35.50;29.00;17.00
77692;PMS5003;66984;47.404;18.836;2023-02-15T04:46:52;36.00;30.00;18.75
77692;PMS5003;66984;47.404;18.836;2023-02-15T04:47:55;35.00;29.00;18.00
77692;PMS5003;66984;47.404;18.836;2023-02-15T04:48:58;36.00;28.00;17.00
77692;PMS5003;66984;47.404;18.836;2023-02-15T04:50:00;34.00;28.00;17.00
77692;PMS5003;66984;47.404;18.836;2023-02-15T04:51:06;33.00;28.00;17.00
77692;PMS5003;66984;47.404;18.836;2023-02-15T04:52:10;34.00;27.75;17.00
77692;PMS5003;66984;47.404;18.836;2023-02-15T04:53:13;32.00;26.25;17.00
77692;PMS5003;66984;47.404;18.836;2023-02-15T04:54:15;32.25;27.25;17.00
77692;PMS5003;66984;47.404;18.836;2023-02-15T04:55:18;35.00;28.00;17.00
77692;PMS5003;66984;47.404;18.836;2023-02-15T04:56:21;33.00;26.00;17.00
77692;PMS5003;66984;47.404;18.836;2023-02-15T04:57:23;33.00;26.00;17.00
77692;PMS5003;66984;47.404;18.836;2023-02-15T04:58:26;33.50;28.00;16.50
77692;PMS5003;66984;47.404;18.836;2023-02-15T04:59:29;33.00;26.00;17.00
77692;PMS5003;66984;47.404;18.836;2023-02-15T05:00:31;32.50;25.00;16.50
77692;PMS5003;66984;47.404;18.836;2023-02-15T05:01:34;32.25;26.00;15.00
77692;PMS5003;66984;47.404;18.836;2023-02-15T05:02:37;32.00;26.00;17.00
77692;PMS5003;66984;47.404;18.836;2023-02-15T05:03:40;32.75;27.00;17.00
77692;PMS5003;66984;47.404;18.836;2023-02-15T05:04:42;33.00;28.00;17.00
77692;PMS5003;66984;47.404;18.836;2023-02-15T05:05:45;33.25;27.50;17.00
77692;PMS5003;66984;47.404;18.836;2023-02-15T05:06:48;34.00;28.00;17.00
77692;PMS5003;66984;47.404;18.836;2023-02-15T05:07:51;32.50;27.50;17.00
77692;PMS5003;66984;47.404;18.836;2023-02-15T05:08:54;33.00;26.25;16.75
77692;PMS5003;66984;47.404;18.836;2023-02-15T05:09:56;34.00;26.00;17.00
77692;PMS5003;66984;47.404;18.836;2023-02-15T05:10:59;32.00;25.75;17.00
77692;PMS5003;66984;47.404;18.836;2023-02-15T05:12:02;32.25;28.00;17.00
77692;PMS5003;66984;47.404;18.836;2023-02-15T05:13:04;34.50;28.00;17.00
77692;PMS5003;66984;47.404;18.836;2023-02-15T05:14:07;34.00;28.00;17.00
77692;PMS5003;66984;47.404;18.836;2023-02-15T05:15:10;32.00;26.00;16.50
77692;PMS5003;66984;47.404;18.836;2023-02-15T05:16:13;31.00;28.00;16.50
77692;PMS5003;66984;47.404;18.836;2023-02-15T05:17:16;31.25;26.00;16.00
77692;PMS5003;66984;47.404;18.836;2023-02-15T05:18:20;34.00;28.00;17.00
77692;PMS5003;66984;47.404;18.836;2023-02-15T05:19:23;33.00;28.00;17.00
77692;PMS5003;66984;47.404;18.836;2023-02-15T05:20:27;33.00;28.00;17.00
77692;PMS5003;66984;47.404;18.836;2023-02-15T05:21:30;33.00;26.75;16.50
77692;PMS5003;66984;47.404;18.836;2023-02-15T05:22:34;31.25;26.00;16.50
77692;PMS5003;66984;47.404;18.836;2023-02-15T05:23:36;34.00;28.00;16.50
77692;PMS5003;66984;47.404;18.836;2023-02-15T05:24:39;34.50;28.00;17.00
77692;PMS5003;66984;47.404;18.836;2023-02-15T05:26:00;34.00;28.00;16.00
77692;PMS5003;66984;47.404;18.836;2023-02-15T05:27:21;32.50;27.00;16.00
77692;PMS5003;66984;47.404;18.836;2023-02-15T05:28:42;31.00;26.75;16.00
77692;PMS5003;66984;47.404;18.836;2023-02-15T05:29:45;29.50;25.00;16.50
77692;PMS5003;66984;47.404;18.836;2023-02-15T05:30:48;31.75;26.00;16.00
77692;PMS5003;66984;47.404;18.836;2023-02-15T05:31:54;33.50;26.25;16.25
77692;PMS5003;66984;47.404;18.836;2023-02-15T05:32:57;33.75;28.00;16.50
77692;PMS5003;66984;47.404;18.836;2023-02-15T05:33:59;33.00;28.00;16.50
77692;PMS5003;66984;47.404;18.836;2023-02-15T05:35:02;34.00;28.00;16.00
77692;PMS5003;66984;47.404;18.836;2023-02-15T05:36:05;34.00;28.00;16.50
77692;PMS5003;66984;47.404;18.836;2023-02-15T05:37:09;34.00;29.00;17.00
77692;PMS5003;66984;47.404;18.836;2023-02-15T05:38:11;34.25;29.75;16.50
77692;PMS5003;66984;47.404;18.836;2023-02-15T05:39:14;33.00;27.50;16.00
77692;PMS5003;66984;47.404;18.836;2023-02-15T05:40:17;34.00;29.00;16.50
77692;PMS5003;66984;47.404;18.836;2023-02-15T05:41:20;34.00;27.50;16.50
77692;PMS5003;66984;47.404;18.836;2023-02-15T05:42:22;33.75;27.50;16.50
77692;PMS5003;66984;47.404;18.836;2023-02-15T05:43:25;34.00;28.00;16.50
77692;PMS5003;66984;47.404;18.836;2023-02-15T05:44:28;33.00;27.50;16.50
77692;PMS5003;66984;47.404;18.836;2023-02-15T05:45:31;30.25;26.00;16.50
77692;PMS5003;66984;47.404;18.836;2023-02-15T05:46:34;33.00;26.00;16.00
77692;PMS5003;66984;47.404;18.836;2023-02-15T05:47:37;32.25;26.00;16.50
77692;PMS5003;66984;47.404;18.836;2023-02-15T05:48:39;32.00;27.00;16.50
77692;PMS5003;66984;47.404;18.836;2023-02-15T05:49:42;32.00;27.00;16.50
77692;PMS5003;66984;47.404;18.836;2023-02-15T05:50:45;31.00;27.00;16.50
77692;PMS5003;66984;47.404;18.836;2023-02-15T05:51:48;33.00;27.00;16.00
77692;PMS5003;66984;47.404;18.836;2023-02-15T05:52:51;33.00;27.00;16.00
77692;PMS5003;66984;47.404;18.836;2023-02-15T05:53:54;31.50;27.00;16.50
77692;PMS5003;66984;47.404;18.836;2023-02-15T05:54:57;32.25;26.00;16.50
77692;PMS5003;66984;47.404;18.836;2023-02-15T05:56:00;34.00;28.00;17.00
77692;PMS5003;66984;47.404;18.836;2023-02-15T05:57:04;33.00;27.50;17.00
77692;PMS5003;66984;47.404;18.836;2023-02-15T05:58:08;33.00;27.00;16.00
77692;PMS5003;66984;47.404;18.836;2023-02-15T05:59:11;34.00;27.50;16.00
77692;PMS5003;66984;47.404;18.836;2023-02-15T06:00:15;33.50;27.50;16.00
77692;PMS5003;66984;47.404;18.836;2023-02-15T06:01:18;30.50;27.00;16.00
77692;PMS5003;66984;47.404;18.836;2023-02-15T06:02:23;33.00;28.00;16.00
77692;PMS5003;66984;47.404;18.836;2023-02-15T06:03:26;34.00;29.00;16.00
77692;PMS5003;66984;47.404;18.836;2023-02-15T06:04:30;33.00;27.00;16.00
77692;PMS5003;66984;47.404;18.836;2023-02-15T06:05:33;33.00;27.00;16.00
77692;PMS5003;66984;47.404;18.836;2023-02-15T06:06:36;32.75;26.00;16.00
77692;PMS5003;66984;47.404;18.836;2023-02-15T06:07:38;32.00;27.00;16.00
77692;PMS5003;66984;47.404;18.836;2023-02-15T06:08:41;29.25;25.00;16.00
77692;PMS5003;66984;47.404;18.836;2023-02-15T06:09:44;31.00;26.50;16.00
77692;PMS5003;66984;47.404;18.836;2023-02-15T06:10:47;33.00;27.50;16.00
77692;PMS5003;66984;47.404;18.836;2023-02-15T06:11:50;33.00;27.50;17.25
77692;PMS5003;66984;47.404;18.836;2023-02-15T06:12:52;33.00;27.50;17.00
77692;PMS5003;66984;47.404;18.836;2023-02-15T06:13:55;33.25;27.50;17.00
77692;PMS5003;66984;47.404;18.836;2023-02-15T06:14:57;34.00;27.50;17.00
77692;PMS5003;66984;47.404;18.836;2023-02-15T06:16:00;34.50;29.00;17.00
77692;PMS5003;66984;47.404;18.836;2023-02-15T06:17:03;36.00;28.00;17.00
77692;PMS5003;66984;47.404;18.836;2023-02-15T06:18:06;35.00;29.00;18.00
77692;PMS5003;66984;47.404;18.836;2023-02-15T06:19:09;35.25;29.00;18.00
77692;PMS5003;66984;47.404;18.836;2023-02-15T06:20:11;35.00;29.00;17.75
77692;PMS5003;66984;47.404;18.836;2023-02-15T06:21:14;33.00;27.25;16.25
77692;PMS5003;66984;47.404;18.836;2023-02-15T06:22:17;32.50;27.50;16.50
77692;PMS5003;66984;47.404;18.836;2023-02-15T06:23:20;35.00;28.00;17.00
77692;PMS5003;66984;47.404;18.836;2023-02-15T06:24:22;33.00;29.00;17.25
77692;PMS5003;66984;47.404;18.836;2023-02-15T06:25:25;33.25;27.75;17.00
77692;PMS5003;66984;47.404;18.836;2023-02-15T06:26:28;33.50;28.00;17.00
77692;PMS5003;66984;47.404;18.836;2023-02-15T06:27:30;36.00;30.00;19.00
77692;PMS5003;66984;47.404;18.836;2023-02-15T06:28:33;35.50;29.75;18.00
77692;PMS5003;66984;47.404;18.836;2023-02-15T06:29:36;38.00;30.00;19.00
77692;PMS5003;66984;47.404;18.836;2023-02-15T06:30:39;36.00;29.00;19.00
77692;PMS5003;66984;47.404;18.836;2023-02-15T06:31:42;36.00;30.00;19.00
77692;PMS5003;66984;47.404;18.836;2023-02-15T06:32:45;36.00;30.50;19.00
77692;PMS5003;66984;47.404;18.836;2023-02-15T06:33:47;38.00;31.25;19.00
77692;PMS5003;66984;47.404;18.836;2023-02-15T06:34:50;39.25;33.25;19.50
77692;PMS5003;66984;47.404;18.836;2023-02-15T06:35:53;40.00;32.75;20.00